createdAt,value
2018-07-19T00:01:03.089Z,74.73
2018-07-19T00:03:31.153Z,75.11
2018-07-19T00:05:59.204Z,75.84
2018-07-19T00:08:27.295Z,74.46
2018-07-19T00:10:55.363Z,73.86
2018-07-19T00:13:23.531Z,74.46
2018-07-19T00:15:51.924Z,75.24
2018-07-19T00:18:24.456Z,75.36
2018-07-19T00:20:52.989Z,74.01
2018-07-19T00:23:21.247Z,74.04
2018-07-19T00:25:49.320Z,75.47
2018-07-19T00:28:17.392Z,75.95
2018-07-19T00:30:45.359Z,76.66
2018-07-19T00:33:13.343Z,77.80
2018-07-19T00:35:41.400Z,76.54
2018-07-19T00:38:09.368Z,77.37
2018-07-19T00:40:37.529Z,77.26
2018-07-19T00:43:05.484Z,77.66
2018-07-19T00:45:33.484Z,76.96
2018-07-19T00:48:01.668Z,77.60
2018-07-19T00:50:29.940Z,76.91
2018-07-19T00:52:57.928Z,77.23
2018-07-19T00:55:25.863Z,78.40
2018-07-19T00:57:54.040Z,78.76
2018-07-19T01:00:22.109Z,78.50
2018-07-19T01:02:50.185Z,78.16
2018-07-19T01:05:18.151Z,76.72
2018-07-19T01:07:46.324Z,78.10
2018-07-19T01:10:14.397Z,78.43
2018-07-19T01:12:42.488Z,77.14
2018-07-19T01:15:10.531Z,77.94
2018-07-19T01:17:38.503Z,77.86
2018-07-19T01:20:06.580Z,77.80
2018-07-19T01:22:34.627Z,78.22
2018-07-19T01:25:02.849Z,78.01
2018-07-19T01:27:30.971Z,78.99
2018-07-19T01:29:58.940Z,78.64
2018-07-19T01:32:26.900Z,79.38
2018-07-19T01:34:55.103Z,80.37
2018-07-19T01:37:23.176Z,80.23
2018-07-19T01:39:51.128Z,79.60
2018-07-19T01:42:34.395Z,79.23
2018-07-19T01:45:02.559Z,79.75
2018-07-19T01:47:30.593Z,79.45
2018-07-19T01:49:58.695Z,79.53
2018-07-19T01:52:26.658Z,80.03
2018-07-19T01:54:54.738Z,80.48
2018-07-19T01:57:22.812Z,80.87
2018-07-19T01:59:51.131Z,81.97
2018-07-19T02:02:19.764Z,80.88
2018-07-19T02:04:47.709Z,80.48
2018-07-19T02:07:15.926Z,80.92
2018-07-19T02:09:44.164Z,81.78
2018-07-19T02:12:12.148Z,80.19
2018-07-19T02:14:40.533Z,80.59
2018-07-19T02:17:08.481Z,80.98
2018-07-19T02:19:36.476Z,81.78
2018-07-19T02:22:04.718Z,80.96
2018-07-19T02:24:32.829Z,80.85
2018-07-19T02:27:01.046Z,81.10
2018-07-19T02:29:29.160Z,81.39
2018-07-19T02:31:57.244Z,81.06
2018-07-19T02:34:25.410Z,81.28
2018-07-19T02:36:53.484Z,81.28
2018-07-19T02:39:21.476Z,81.28
2018-07-19T02:41:49.626Z,81.48
2018-07-19T02:44:17.692Z,81.16
2018-07-19T02:46:45.872Z,81.23
2018-07-19T02:49:14.056Z,81.97
2018-07-19T02:51:43.136Z,82.80
2018-07-19T02:54:11.620Z,82.72
2018-07-19T02:56:39.768Z,81.66
2018-07-19T02:59:07.764Z,81.55
2018-07-19T03:01:36.140Z,82.72
2018-07-19T03:04:04.326Z,82.09
2018-07-19T03:06:32.406Z,82.61
2018-07-19T03:09:00.578Z,82.29
2018-07-19T03:11:28.723Z,82.89
2018-07-19T03:13:56.677Z,82.27
2018-07-19T03:16:24.778Z,83.09
2018-07-19T03:18:52.844Z,82.87
2018-07-19T03:21:20.912Z,83.90
2018-07-19T03:23:48.988Z,83.12
2018-07-19T03:26:17.032Z,83.03
2018-07-19T03:28:45.024Z,83.49
2018-07-19T03:31:13.025Z,83.82
2018-07-19T03:33:41.300Z,82.49
2018-07-19T03:36:09.437Z,84.33
2018-07-19T03:38:37.426Z,83.84
2018-07-19T03:41:05.835Z,84.00
2018-07-19T03:43:34.016Z,84.80
2018-07-19T03:46:02.132Z,83.69
2018-07-19T03:48:30.111Z,82.98
2018-07-19T03:50:58.178Z,84.20
2018-07-19T03:53:26.146Z,83.24
2018-07-19T03:55:57.045Z,82.75
2018-07-19T03:58:25.048Z,83.03
2018-07-19T04:00:53.043Z,82.76
2018-07-19T04:03:21.188Z,83.14
2018-07-19T04:05:49.162Z,82.87
2018-07-19T04:08:17.128Z,82.99
2018-07-19T04:10:45.097Z,82.87
2018-07-19T04:13:13.248Z,81.23
2018-07-19T04:15:41.249Z,82.52
2018-07-19T04:18:09.514Z,82.71
2018-07-19T04:20:37.585Z,83.33
2018-07-19T04:23:05.764Z,83.49
2018-07-19T04:25:34.060Z,82.90
2018-07-19T04:28:02.110Z,81.86
2018-07-19T04:30:30.256Z,80.71
2018-07-19T04:32:58.256Z,80.98
2018-07-19T04:35:26.432Z,82.01
2018-07-19T04:37:54.600Z,80.38
2018-07-19T04:40:22.545Z,81.04
2018-07-19T04:42:50.892Z,82.03
2018-07-19T04:45:19.008Z,80.72
2018-07-19T04:47:47.109Z,81.23
2018-07-19T04:50:15.159Z,81.94
2018-07-19T04:52:43.131Z,81.61
2018-07-19T04:55:11.277Z,82.41
2018-07-19T04:57:39.372Z,82.15
2018-07-19T05:00:07.643Z,81.58
2018-07-19T05:02:35.588Z,81.98
2018-07-19T05:05:04.103Z,81.96
2018-07-19T05:07:32.164Z,81.74
2018-07-19T05:10:00.136Z,81.95
2018-07-19T05:12:28.204Z,81.48
2018-07-19T05:14:56.169Z,81.49
2018-07-19T05:17:24.348Z,81.65
2018-07-19T05:19:52.428Z,82.27
2018-07-19T05:22:20.387Z,81.13
2018-07-19T05:24:48.563Z,81.24
2018-07-19T05:27:16.484Z,81.13
2018-07-19T05:29:44.499Z,79.57
2018-07-19T05:32:12.876Z,79.90
2018-07-19T05:34:41.022Z,79.95
2018-07-19T05:37:08.966Z,74.28
2018-07-19T05:39:36.887Z,71.93
2018-07-19T05:42:04.966Z,71.04
2018-07-19T05:44:33.056Z,70.48
2018-07-19T05:47:01.108Z,69.98
2018-07-19T05:49:29.048Z,69.15
2018-07-19T05:51:57.025Z,68.57
2018-07-19T05:54:25.007Z,68.39
2018-07-19T05:56:52.984Z,67.88
2018-07-19T05:59:20.951Z,65.99
2018-07-19T06:01:49.015Z,66.79
2018-07-19T06:04:16.991Z,66.16
2018-07-19T06:06:45.068Z,66.76
2018-07-19T06:09:13.176Z,66.20
2018-07-19T06:11:41.184Z,66.97
2018-07-19T06:14:09.172Z,66.61
2018-07-19T06:16:37.063Z,64.41
2018-07-19T06:19:05.412Z,64.59
2018-07-19T06:21:33.401Z,62.92
2018-07-19T06:24:01.569Z,63.71
2018-07-19T06:26:29.624Z,63.09
2018-07-19T06:28:57.572Z,62.08
2018-07-19T06:31:25.674Z,61.69
2018-07-19T06:33:53.736Z,60.85
2018-07-19T06:36:21.720Z,61.04
2018-07-19T06:38:49.672Z,62.04
2018-07-19T06:41:17.735Z,62.72
2018-07-19T06:43:45.616Z,61.88
2018-07-19T06:46:13.687Z,61.20
2018-07-19T06:48:41.768Z,59.70
2018-07-19T06:51:10.031Z,60.94
2018-07-19T06:53:38.125Z,60.68
2018-07-19T06:56:06.067Z,59.42
2018-07-19T06:58:34.096Z,59.09
2018-07-19T07:01:02.104Z,57.86
2018-07-19T07:03:30.231Z,56.75
2018-07-19T07:05:58.740Z,57.22
2018-07-19T07:08:26.691Z,56.90
2018-07-19T07:10:54.801Z,56.30
2018-07-19T07:13:22.876Z,57.45
2018-07-19T07:15:50.948Z,57.14
2018-07-19T07:18:18.987Z,55.77
2018-07-19T07:20:48.032Z,54.77
2018-07-19T07:23:16.308Z,54.90
2018-07-19T07:25:49.601Z,56.54
2018-07-19T07:28:18.532Z,54.79
2018-07-19T07:30:46.540Z,52.79
2018-07-19T07:33:15.229Z,51.88
2018-07-19T07:35:43.603Z,48.21
2018-07-19T07:38:11.575Z,42.24
2018-07-19T07:40:39.652Z,38.67
2018-07-19T07:43:08.336Z,39.48
2018-07-19T07:45:36.308Z,38.04
2018-07-19T07:48:04.448Z,36.62
2018-07-19T07:50:32.856Z,34.64
2018-07-19T07:53:00.795Z,35.53
2018-07-19T07:55:28.789Z,35.24
2018-07-19T07:57:56.836Z,36.63
2018-07-19T08:00:24.962Z,31.91
2018-07-19T08:02:53.125Z,32.99
2018-07-19T08:05:21.587Z,35.01
2018-07-19T08:07:49.655Z,32.71
2018-07-19T08:10:17.736Z,34.37
2018-07-19T08:12:45.708Z,34.11
2018-07-19T08:15:13.669Z,32.94
2018-07-19T08:17:41.843Z,33.62
2018-07-19T08:20:09.808Z,34.36
2018-07-19T08:22:37.775Z,36.76
2018-07-19T08:25:05.639Z,36.70
2018-07-19T08:27:33.713Z,34.43
2018-07-19T08:30:01.696Z,34.53
2018-07-19T08:32:29.965Z,35.01
2018-07-19T08:34:57.931Z,36.20
2018-07-19T08:37:25.896Z,33.72
2018-07-19T08:39:53.863Z,36.02
2018-07-19T08:42:21.831Z,34.22
2018-07-19T08:44:49.907Z,35.50
2018-07-19T08:47:17.880Z,31.25
2018-07-19T08:49:46.904Z,32.70
2018-07-19T08:52:15.263Z,31.71
2018-07-19T08:54:43.527Z,34.28
2018-07-19T08:57:11.595Z,32.52
2018-07-19T08:59:39.701Z,33.45
2018-07-19T09:02:07.821Z,33.61
2018-07-19T09:04:35.812Z,30.85
2018-07-19T09:07:04.099Z,34.42
2018-07-19T09:09:32.180Z,31.01
2018-07-19T09:12:00.219Z,31.06
2018-07-19T09:14:28.174Z,32.32
2018-07-19T09:16:56.376Z,33.59
2018-07-19T09:19:24.310Z,33.36
2018-07-19T09:21:52.404Z,35.40
2018-07-19T09:24:20.363Z,34.98
2018-07-19T09:26:48.453Z,34.68
2018-07-19T09:29:16.416Z,34.94
2018-07-19T09:31:44.497Z,36.35
2018-07-19T09:34:12.560Z,38.16
2018-07-19T09:36:40.496Z,37.60
2018-07-19T09:39:10.742Z,37.87
2018-07-19T09:41:38.845Z,34.60
2018-07-19T09:44:07.025Z,34.91
2018-07-19T09:46:34.945Z,36.16
2018-07-19T09:49:03.138Z,33.65
2018-07-19T09:51:31.052Z,35.03
2018-07-19T09:53:59.507Z,34.47
2018-07-19T09:56:27.764Z,35.43
2018-07-19T09:58:55.832Z,33.73
2018-07-19T10:01:23.808Z,33.87
2018-07-19T10:03:52.190Z,36.19
2018-07-19T10:06:20.676Z,36.08
2018-07-19T10:08:48.627Z,33.85
2018-07-19T10:11:16.593Z,34.25
2018-07-19T10:13:45.046Z,35.70
2018-07-19T10:16:12.917Z,38.88
2018-07-19T10:18:40.912Z,35.97
2018-07-19T10:21:08.876Z,35.46
2018-07-19T10:23:36.880Z,33.56
2018-07-19T10:26:05.020Z,38.03
2018-07-19T10:28:33.121Z,35.33
2018-07-19T10:31:01.160Z,34.06
2018-07-19T10:33:29.127Z,35.92
2018-07-19T10:35:57.072Z,39.23
2018-07-19T10:38:25.104Z,33.67
2018-07-19T10:40:53.116Z,32.63
2018-07-19T10:43:21.209Z,34.84
2018-07-19T10:45:49.256Z,33.19
2018-07-19T10:48:17.252Z,36.20
2018-07-19T10:50:45.320Z,34.75
2018-07-19T10:53:13.289Z,34.11
2018-07-19T10:55:41.260Z,34.72
2018-07-19T10:58:09.223Z,34.73
2018-07-19T11:00:37.192Z,34.71
2018-07-19T11:03:05.585Z,33.12
2018-07-19T11:05:33.520Z,36.55
2018-07-19T11:08:01.632Z,35.16
2018-07-19T11:10:29.788Z,35.37
2018-07-19T11:12:57.757Z,37.27
2018-07-19T11:15:25.732Z,33.90
2018-07-19T11:17:53.804Z,38.83
2018-07-19T11:20:21.976Z,35.03
2018-07-19T11:22:49.952Z,34.07
2018-07-19T11:25:17.884Z,37.50
2018-07-19T11:27:45.876Z,34.25
2018-07-19T11:30:13.930Z,34.05
2018-07-19T11:32:41.925Z,34.78
2018-07-19T11:35:09.890Z,34.60
2018-07-19T11:37:37.933Z,33.60
2018-07-19T11:40:05.930Z,34.04
2018-07-19T11:42:33.893Z,35.43
2018-07-19T11:45:01.866Z,34.17
2018-07-19T11:47:29.936Z,33.62
2018-07-19T11:49:57.950Z,33.99
2018-07-19T11:52:25.877Z,32.14
2018-07-19T11:54:54.065Z,32.60
2018-07-19T11:57:22.236Z,34.16
2018-07-19T11:59:50.194Z,33.17
2018-07-19T12:02:18.264Z,35.80
2018-07-19T12:04:46.235Z,32.95
2018-07-19T12:07:14.201Z,33.28
2018-07-19T12:09:42.175Z,32.38
2018-07-19T12:12:10.320Z,33.88
2018-07-19T12:14:38.393Z,33.55
2018-07-19T12:17:06.384Z,30.80
2018-07-19T12:19:34.432Z,35.00
2018-07-19T12:22:02.501Z,32.78
2018-07-19T12:24:30.796Z,36.54
2018-07-19T12:26:58.749Z,34.10
2018-07-19T12:29:26.741Z,36.73
2018-07-19T12:31:54.755Z,41.97
2018-07-19T12:34:22.773Z,36.45
2018-07-19T12:36:50.780Z,33.78
2018-07-19T12:39:18.816Z,33.59
2018-07-19T12:41:47.121Z,31.36
2018-07-19T12:44:15.167Z,35.06
2018-07-19T12:46:43.136Z,32.38
2018-07-19T12:49:11.109Z,31.67
2018-07-19T12:51:39.076Z,32.22
2018-07-19T12:54:07.248Z,31.75
2018-07-19T12:56:35.213Z,32.06
2018-07-19T12:59:03.292Z,32.22
2018-07-19T13:01:31.478Z,32.21
2018-07-19T13:03:59.540Z,32.93
2018-07-19T13:06:27.496Z,32.24
2018-07-19T13:08:55.476Z,32.89
2018-07-19T13:11:23.408Z,33.39
2018-07-19T13:13:51.513Z,33.58
2018-07-19T13:16:19.480Z,34.05
2018-07-19T13:18:47.429Z,33.43
2018-07-19T13:21:15.616Z,32.45
2018-07-19T13:23:43.596Z,32.06
2018-07-19T13:26:11.553Z,32.71
2018-07-19T13:28:39.632Z,33.24
2018-07-19T13:31:07.677Z,32.80
2018-07-19T13:33:35.681Z,31.70
2018-07-19T13:36:03.642Z,34.08
2018-07-19T13:38:31.684Z,33.94
2018-07-19T13:40:59.668Z,32.06
2018-07-19T13:43:27.641Z,31.27
2018-07-19T13:45:55.612Z,32.94
2018-07-19T13:48:23.688Z,31.36
2018-07-19T13:50:51.651Z,30.27
2018-07-19T13:53:32.872Z,33.41
2018-07-19T13:56:01.011Z,32.41
2018-07-19T13:58:28.973Z,32.25
2018-07-19T14:00:56.976Z,32.55
2018-07-19T14:03:25.120Z,33.58
2018-07-19T14:05:53.085Z,31.43
2018-07-19T14:08:21.159Z,30.96
2018-07-19T14:10:49.125Z,30.85
2018-07-19T14:13:17.353Z,33.82
2018-07-19T14:15:45.468Z,34.16
2018-07-19T14:18:13.848Z,31.39
2018-07-19T14:20:41.928Z,30.56
2018-07-19T14:23:09.889Z,32.07
2018-07-19T14:25:38.121Z,32.06
2018-07-19T14:28:06.218Z,31.32
2018-07-19T14:30:34.316Z,30.72
2018-07-19T14:33:02.281Z,31.52
2018-07-19T14:35:30.253Z,34.19
2018-07-19T14:37:58.212Z,32.36
2018-07-19T14:40:26.301Z,30.76
2018-07-19T14:42:54.325Z,29.73
2018-07-19T14:45:22.429Z,29.76
2018-07-19T14:47:50.397Z,30.84
2018-07-19T14:50:18.464Z,32.15
2018-07-19T14:52:46.436Z,34.79
2018-07-19T14:55:14.408Z,31.57
2018-07-19T14:57:42.372Z,31.65
2018-07-19T15:00:10.532Z,30.28
2018-07-19T15:02:38.525Z,29.70
2018-07-19T15:05:06.588Z,30.21
2018-07-19T15:07:34.664Z,30.29
2018-07-19T15:10:02.726Z,31.29
2018-07-19T15:12:30.677Z,31.60
2018-07-19T15:14:58.753Z,30.60
2018-07-19T15:17:26.744Z,31.40
2018-07-19T15:19:54.704Z,32.09
2018-07-19T15:22:22.897Z,33.73
2018-07-19T15:24:50.976Z,34.96
2018-07-19T15:27:19.023Z,33.38
2018-07-19T15:29:47.085Z,32.64
2018-07-19T15:32:15.065Z,35.27
2018-07-19T15:34:43.028Z,35.70
2018-07-19T15:37:11.096Z,36.25
2018-07-19T15:39:39.095Z,33.04
2018-07-19T15:42:07.353Z,36.23
2018-07-19T15:44:35.416Z,32.82
2018-07-19T15:47:03.394Z,32.51
2018-07-19T15:49:31.432Z,33.19
2018-07-19T15:51:59.440Z,30.99
2018-07-19T15:54:27.395Z,31.62
2018-07-19T15:56:55.468Z,30.37
2018-07-19T15:59:23.444Z,30.54
2018-07-19T16:01:51.505Z,30.28
2018-07-19T16:04:19.578Z,29.74
2018-07-19T16:06:47.557Z,30.53
2018-07-19T16:09:15.524Z,30.11
2018-07-19T16:11:43.465Z,29.85
2018-07-19T16:14:11.460Z,31.20
2018-07-19T16:16:39.532Z,31.09
2018-07-19T16:19:07.484Z,33.08
2018-07-19T16:21:35.459Z,32.89
2018-07-19T16:24:03.509Z,33.50
2018-07-19T16:26:31.604Z,31.63
2018-07-19T16:28:59.572Z,32.26
2018-07-19T16:31:28.694Z,33.16
2018-07-19T16:33:57.152Z,32.68
2018-07-19T16:36:25.397Z,33.14
2018-07-19T16:38:53.596Z,29.99
2018-07-19T16:41:21.762Z,30.38
2018-07-19T16:43:49.952Z,30.81
2018-07-19T16:46:18.178Z,31.12
2018-07-19T16:48:46.295Z,31.80
2018-07-19T16:51:14.456Z,31.48
2018-07-19T16:53:42.461Z,31.13
2018-07-19T16:56:10.490Z,31.09
2018-07-19T16:58:38.646Z,30.59
2018-07-19T17:01:06.878Z,31.33
2018-07-19T17:03:35.046Z,32.37
2018-07-19T17:06:03.408Z,32.38
2018-07-19T17:08:31.514Z,32.11
2018-07-19T17:10:59.544Z,31.91
2018-07-19T17:13:27.536Z,31.74
2018-07-19T17:15:55.572Z,33.33
2018-07-19T17:18:23.561Z,35.81
2018-07-19T17:20:51.529Z,33.80
2018-07-19T17:23:19.655Z,32.86
2018-07-19T17:25:48.009Z,33.19
2018-07-19T17:28:16.239Z,33.05
2018-07-19T17:30:45.261Z,32.84
2018-07-19T17:33:13.536Z,32.91
2018-07-19T17:35:44.311Z,33.56
2018-07-19T17:38:12.724Z,33.33
2018-07-19T17:40:40.704Z,32.87
2018-07-19T17:43:08.777Z,33.97
2018-07-19T17:45:36.855Z,35.03
2018-07-19T17:48:05.021Z,33.55
2018-07-19T17:50:33.073Z,34.36
2018-07-19T17:53:01.060Z,34.03
2018-07-19T17:55:29.106Z,34.87
2018-07-19T17:57:57.300Z,35.84
2018-07-19T18:00:25.252Z,35.36
2018-07-19T18:02:53.254Z,34.19
2018-07-19T18:05:21.316Z,36.24
2018-07-19T18:07:49.292Z,35.86
2018-07-19T18:10:17.252Z,36.38
2018-07-19T18:12:45.429Z,35.66
2018-07-19T18:15:13.401Z,35.13
2018-07-19T18:17:41.382Z,36.18
2018-07-19T18:20:09.521Z,36.44
2018-07-19T18:22:37.608Z,37.11
2018-07-19T18:25:06.373Z,36.32
2018-07-19T18:27:34.569Z,36.80
2018-07-19T18:30:02.856Z,37.92
2018-07-19T18:32:30.813Z,37.89
2018-07-19T18:34:58.813Z,38.26
2018-07-19T18:37:26.853Z,40.62
2018-07-19T18:39:54.827Z,38.49
2018-07-19T18:42:22.788Z,39.41
2018-07-19T18:44:50.756Z,38.84
2018-07-19T18:47:18.829Z,40.44
2018-07-19T18:49:46.907Z,42.93
2018-07-19T18:52:14.995Z,41.71
2018-07-19T18:54:43.150Z,43.07
2018-07-19T18:57:11.124Z,42.47
2018-07-19T18:59:39.076Z,43.87
2018-07-19T19:02:07.236Z,40.58
2018-07-19T19:04:35.236Z,40.95
2018-07-19T19:07:03.401Z,39.91
2018-07-19T19:09:31.351Z,40.05
2018-07-19T19:11:59.440Z,41.40
2018-07-19T19:14:27.412Z,40.13
2018-07-19T19:16:55.780Z,41.13
2018-07-19T19:19:23.885Z,45.53
2018-07-19T19:21:52.225Z,42.84
2018-07-19T19:24:20.343Z,46.74
2018-07-19T19:26:48.291Z,43.17
2018-07-19T19:29:16.261Z,47.20
2018-07-19T19:31:44.326Z,45.84
2018-07-19T19:34:12.304Z,43.60
2018-07-19T19:36:40.477Z,46.99
2018-07-19T19:39:10.896Z,47.25
2018-07-19T19:41:38.972Z,49.26
2018-07-19T19:44:06.965Z,45.32
2018-07-19T19:46:35.120Z,44.73
2018-07-19T19:49:03.292Z,44.18
2018-07-19T19:51:31.369Z,47.82
2018-07-19T19:53:59.748Z,48.54
2018-07-19T19:56:27.809Z,50.42
2018-07-19T19:58:55.780Z,48.52
2018-07-19T20:01:24.178Z,49.10
2018-07-19T20:03:52.338Z,49.92
2018-07-19T20:06:20.317Z,49.64
2018-07-19T20:08:48.383Z,49.94
2018-07-19T20:11:16.565Z,49.80
2018-07-19T20:13:44.829Z,49.42
2018-07-19T20:16:12.803Z,48.95
2018-07-19T20:18:40.871Z,50.24
2018-07-19T20:21:08.921Z,49.18
2018-07-19T20:23:37.221Z,50.08
2018-07-19T20:26:05.297Z,52.79
2018-07-19T20:28:33.368Z,52.10
2018-07-19T20:31:01.444Z,52.51
2018-07-19T20:33:29.617Z,52.37
2018-07-19T20:35:57.578Z,52.53
2018-07-19T20:38:25.544Z,52.04
2018-07-19T20:40:53.828Z,53.35
2018-07-19T20:43:21.813Z,54.52
2018-07-19T20:45:49.965Z,53.82
2018-07-19T20:48:17.944Z,54.79
2018-07-19T20:50:46.117Z,54.74
2018-07-19T20:53:14.090Z,54.07
2018-07-19T20:55:42.160Z,52.93
2018-07-19T20:58:10.125Z,53.65
2018-07-19T21:00:38.414Z,53.47
2018-07-19T21:03:06.478Z,54.54
2018-07-19T21:05:34.649Z,53.34
2018-07-19T21:08:02.804Z,56.94
2018-07-19T21:10:30.862Z,53.10
2018-07-19T21:12:58.920Z,53.63
2018-07-19T21:15:26.934Z,53.83
2018-07-19T21:17:54.913Z,55.13
2018-07-19T21:20:23.068Z,54.89
2018-07-19T21:22:51.051Z,54.64
2018-07-19T21:25:19.213Z,55.47
2018-07-19T21:27:47.180Z,56.99
2018-07-19T21:30:15.161Z,56.08
2018-07-19T21:32:43.192Z,55.74
2018-07-19T21:35:11.289Z,57.59
2018-07-19T21:37:39.278Z,55.98
2018-07-19T21:40:07.456Z,57.11
2018-07-19T21:42:35.520Z,56.21
2018-07-19T21:45:04.221Z,56.53
2018-07-19T21:47:32.273Z,56.53
2018-07-19T21:50:00.242Z,57.23
2018-07-19T21:52:28.406Z,57.87
2018-07-19T21:54:56.385Z,57.60
2018-07-19T21:57:24.443Z,57.00
2018-07-19T21:59:52.624Z,56.19
2018-07-19T22:02:20.821Z,57.66
2018-07-19T22:04:48.871Z,59.91
2018-07-19T22:07:16.945Z,59.19
2018-07-19T22:09:45.110Z,57.79
2018-07-19T22:12:13.152Z,60.12
2018-07-19T22:14:41.269Z,57.74
2018-07-19T22:17:09.320Z,58.16
2018-07-19T22:19:37.384Z,60.02
2018-07-19T22:22:05.377Z,58.91
2018-07-19T22:24:33.417Z,59.47
2018-07-19T22:27:01.413Z,59.31
2018-07-19T22:29:29.458Z,59.39
2018-07-19T22:31:57.449Z,60.71
2018-07-19T22:34:25.440Z,59.93
2018-07-19T22:36:53.368Z,58.09
2018-07-19T22:39:21.352Z,61.22
2018-07-19T22:41:49.324Z,62.43
2018-07-19T22:44:17.482Z,59.67
2018-07-19T22:46:45.468Z,61.77
2018-07-19T22:49:13.421Z,61.48
2018-07-19T22:51:41.413Z,61.48
2018-07-19T22:54:09.368Z,61.75
2018-07-19T22:56:37.344Z,61.75
2018-07-19T22:59:05.415Z,61.50
2018-07-19T23:01:33.454Z,61.35
2018-07-19T23:04:01.437Z,61.60
2018-07-19T23:06:29.420Z,62.08
2018-07-19T23:08:57.359Z,61.54
2018-07-19T23:11:25.360Z,62.87
2018-07-19T23:13:53.321Z,61.42
2018-07-19T23:16:21.297Z,60.71
2018-07-19T23:18:49.268Z,59.84
2018-07-19T23:21:17.337Z,58.89
2018-07-19T23:23:45.401Z,61.32
2018-07-19T23:26:13.376Z,62.23
2018-07-19T23:28:41.433Z,62.89
2018-07-19T23:31:09.592Z,62.28
2018-07-19T23:33:37.669Z,61.41
2018-07-19T23:36:08.684Z,59.01
2018-07-19T23:38:42.256Z,58.10
2018-07-19T23:41:14.989Z,59.43
2018-07-19T23:43:45.716Z,59.00
2018-07-19T23:46:17.784Z,57.85
2018-07-19T23:48:46.140Z,58.06
2018-07-19T23:51:14.162Z,60.99
2018-07-19T23:53:42.237Z,61.33
2018-07-19T23:56:10.197Z,61.99
2018-07-19T23:58:38.169Z,60.76
